Time;durP1;ratioP1;P1;durP2;ratioP2;P2;SDS_P1;SDS_P2;PMS_P1;PMS_P2;Temp;Humidity;BMP_temperature;BMP_pressure;BME280_temperature;BME280_humidity;BME280_pressure;Samples;Min_cycle;Max_cycle;Signal;HPM_P1;HPM_P2
2022/06/18 00:00:55;;;;;;;4.80;3.57;;;;;;;;;;5031757;28;20770;-86
2022/06/18 00:03:21;;;;;;;5.47;4.07;;;;;;;;;;5015054;28;20408;-84
2022/06/18 00:05:49;;;;;;;5.10;4.30;;;;;;;;;;5015094;28;20423;-84
2022/06/18 00:08:16;;;;;;;5.57;4.87;;;;;;;;;;5014937;28;20410;-84
2022/06/18 00:10:43;;;;;;;6.33;4.43;;;;;;;;;;5015901;28;20403;-85
2022/06/18 00:16:00;;;;;;;4.87;3.97;;;;;;;;;;5026108;28;20441;-84
2022/06/18 00:18:27;;;;;;;6.43;5.00;;;;;;;;;;5009262;28;20536;-87
2022/06/18 00:20:53;;;;;;;5.40;3.70;;;;;;;;;;5016713;28;20465;-85
2022/06/18 00:23:19;;;;;;;10.57;4.43;;;;;;;;;;5017922;28;20816;-87
2022/06/18 00:25:46;;;;;;;6.10;4.17;;;;;;;;;;5020049;28;20432;-85
2022/06/18 00:28:19;;;;;;;4.13;3.33;;;;;;;;;;5028174;28;20403;-86
2022/06/18 00:30:45;;;;;;;5.50;3.60;;;;;;;;;;5016661;28;20403;-85
2022/06/18 00:33:11;;;;;;;4.30;3.77;;;;;;;;;;5034019;28;20490;-85
2022/06/18 00:35:38;;;;;;;5.27;3.60;;;;;;;;;;5017985;28;20475;-87
2022/06/18 00:38:05;;;;;;;6.67;3.80;;;;;;;;;;5017321;28;20799;-87
2022/06/18 00:40:31;;;;;;;5.30;3.63;;;;;;;;;;5017555;28;20483;-87
2022/06/18 00:43:02;;;;;;;4.33;3.93;;;;;;;;;;5019458;28;20546;-86
2022/06/18 00:45:29;;;;;;;8.07;4.00;;;;;;;;;;5004263;28;20440;-86
2022/06/18 00:48:16;;;;;;;4.63;4.13;;;;;;;;;;5017154;28;20404;-87
2022/06/18 00:50:49;;;;;;;4.17;3.67;;;;;;;;;;5002970;28;20502;-87
2022/06/18 00:53:25;;;;;;;4.40;3.50;;;;;;;;;;5016516;28;20867;-87
2022/06/18 00:55:58;;;;;;;6.03;3.80;;;;;;;;;;5016331;28;20455;-87
2022/06/18 00:58:38;;;;;;;7.67;3.80;;;;;;;;;;4999498;28;20403;-87
2022/06/18 01:01:12;;;;;;;4.57;3.70;;;;;;;;;;5016235;28;20421;-87
2022/06/18 01:03:38;;;;;;;5.13;3.80;;;;;;;;;;5017191;28;20494;-87
2022/06/18 01:06:11;;;;;;;4.30;3.47;;;;;;;;;;5016657;28;20439;-87
2022/06/18 01:08:39;;;;;;;6.70;3.60;;;;;;;;;;5016511;28;20429;-87
2022/06/18 01:11:08;;;;;;;6.20;3.73;;;;;;;;;;5016201;28;20411;-87
2022/06/18 01:13:36;;;;;;;5.47;4.03;;;;;;;;;;5003550;28;20462;-87
2022/06/18 01:16:02;;;;;;;11.90;4.60;;;;;;;;;;5016058;28;20434;-87
2022/06/18 01:18:29;;;;;;;4.20;3.77;;;;;;;;;;5016671;28;20419;-86
2022/06/18 01:21:11;;;;;;;5.57;4.33;;;;;;;;;;5017289;28;20407;-86
2022/06/18 01:23:41;;;;;;;7.03;4.40;;;;;;;;;;5017477;28;20894;-86
2022/06/18 01:26:07;;;;;;;4.03;3.60;;;;;;;;;;5025892;28;20426;-84
2022/06/18 01:28:34;;;;;;;6.80;4.20;;;;;;;;;;5032216;28;20438;-84
2022/06/18 01:31:00;;;;;;;6.33;4.87;;;;;;;;;;5032480;28;20446;-84
2022/06/18 01:33:26;;;;;;;4.70;3.83;;;;;;;;;;5031970;28;20447;-84
2022/06/18 01:35:54;;;;;;;8.00;4.30;;;;;;;;;;5023932;28;20451;-87
2022/06/18 01:38:20;;;;;;;4.93;4.20;;;;;;;;;;4999337;28;20431;-87
2022/06/18 01:40:52;;;;;;;6.33;4.80;;;;;;;;;;5016569;28;20411;-87
2022/06/18 01:43:19;;;;;;;4.53;4.00;;;;;;;;;;5017356;28;20422;-86
2022/06/18 01:45:48;;;;;;;4.67;4.20;;;;;;;;;;5017343;28;20481;-87
2022/06/18 01:48:18;;;;;;;4.67;4.13;;;;;;;;;;5016571;28;20399;-87
2022/06/18 01:50:47;;;;;;;9.10;4.67;;;;;;;;;;5016958;28;20443;-87
2022/06/18 01:53:34;;;;;;;8.27;4.30;;;;;;;;;;5016670;28;20403;-86
2022/06/18 01:56:02;;;;;;;5.40;4.07;;;;;;;;;;5017615;28;20829;-87
2022/06/18 01:58:36;;;;;;;6.67;3.97;;;;;;;;;;5017517;28;20503;-87
2022/06/18 02:01:04;;;;;;;7.90;5.60;;;;;;;;;;5015886;28;20403;-87
2022/06/18 02:03:30;;;;;;;6.17;4.27;;;;;;;;;;4998337;28;20602;-87
2022/06/18 02:05:56;;;;;;;4.40;3.80;;;;;;;;;;5015831;28;20663;-87
2022/06/18 02:08:22;;;;;;;5.00;4.50;;;;;;;;;;5018480;28;20410;-87
2022/06/18 02:11:03;;;;;;;4.30;3.90;;;;;;;;;;5002653;28;20867;-87
2022/06/18 02:13:34;;;;;;;6.50;4.57;;;;;;;;;;5027400;28;20842;-87
2022/06/18 02:16:00;;;;;;;7.37;4.30;;;;;;;;;;5034557;28;20419;-87
2022/06/18 02:18:28;;;;;;;5.63;4.17;;;;;;;;;;5027497;28;20403;-86
2022/06/18 02:20:55;;;;;;;6.80;4.40;;;;;;;;;;5019804;28;20407;-87
2022/06/18 02:23:22;;;;;;;5.33;3.57;;;;;;;;;;5019726;28;20415;-87
2022/06/18 02:25:48;;;;;;;4.50;3.93;;;;;;;;;;5019635;28;20481;-87
2022/06/18 02:28:18;;;;;;;5.43;4.37;;;;;;;;;;5019367;28;20457;-87
2022/06/18 02:30:45;;;;;;;4.00;3.60;;;;;;;;;;5019824;28;20888;-86
2022/06/18 02:33:29;;;;;;;5.93;3.93;;;;;;;;;;5001058;28;20782;-86
2022/06/18 02:36:01;;;;;;;4.43;3.63;;;;;;;;;;5019301;28;20439;-87
2022/06/18 02:38:27;;;;;;;5.17;3.90;;;;;;;;;;5019276;28;20433;-87
2022/06/18 02:40:53;;;;;;;4.93;4.00;;;;;;;;;;5000046;28;20407;-84
2022/06/18 02:43:20;;;;;;;5.03;3.53;;;;;;;;;;5016975;28;20430;-84
2022/06/18 02:45:48;;;;;;;4.03;3.63;;;;;;;;;;5000203;28;20431;-86
2022/06/18 02:48:14;;;;;;;7.97;4.03;;;;;;;;;;5030725;28;20399;-87
2022/06/18 02:50:41;;;;;;;4.93;4.10;;;;;;;;;;5012729;28;20431;-87
2022/06/18 02:53:09;;;;;;;4.27;3.87;;;;;;;;;;5000303;28;20411;-87
2022/06/18 02:55:36;;;;;;;3.90;3.40;;;;;;;;;;4999081;28;20415;-87
2022/06/18 02:58:05;;;;;;;4.67;3.87;;;;;;;;;;4999318;28;20411;-87
2022/06/18 03:00:36;;;;;;;5.50;3.33;;;;;;;;;;4981479;28;20827;-87
2022/06/18 03:03:02;;;;;;;5.07;3.70;;;;;;;;;;5003503;28;20368;-86
2022/06/18 03:05:28;;;;;;;6.83;3.77;;;;;;;;;;5002168;28;20785;-87
2022/06/18 03:07:54;;;;;;;4.23;3.47;;;;;;;;;;4981240;28;20408;-87
2022/06/18 03:13:05;;;;;;;3.80;3.33;;;;;;;;;;4998871;28;20848;-87
2022/06/18 03:15:31;;;;;;;5.83;3.90;;;;;;;;;;4998823;28;20455;-87
2022/06/18 03:17:58;;;;;;;5.23;3.33;;;;;;;;;;4999398;28;20400;-87
2022/06/18 03:20:29;;;;;;;4.90;3.40;;;;;;;;;;4997982;28;20404;-87
2022/06/18 03:22:55;;;;;;;5.00;3.23;;;;;;;;;;4981639;28;20419;-87
2022/06/18 03:25:21;;;;;;;4.37;3.57;;;;;;;;;;4998877;28;20432;-87
2022/06/18 03:27:47;;;;;;;5.23;3.40;;;;;;;;;;4999336;28;20896;-87
2022/06/18 03:30:13;;;;;;;4.73;3.23;;;;;;;;;;4999925;28;20408;-86
2022/06/18 03:32:39;;;;;;;4.03;3.20;;;;;;;;;;5000261;28;20854;-87
2022/06/18 03:35:06;;;;;;;4.70;3.83;;;;;;;;;;5027577;23;20859;-83
2022/06/18 03:37:32;;;;;;;4.73;3.63;;;;;;;;;;5021807;28;20480;-82
2022/06/18 03:39:58;;;;;;;3.40;3.10;;;;;;;;;;5024175;28;20402;-82
2022/06/18 03:42:24;;;;;;;4.77;3.40;;;;;;;;;;5020889;28;20408;-83
2022/06/18 03:44:50;;;;;;;5.80;4.37;;;;;;;;;;5019577;28;20792;-83
2022/06/18 03:47:16;;;;;;;5.13;3.40;;;;;;;;;;5020076;28;20407;-83
2022/06/18 03:49:42;;;;;;;4.77;3.30;;;;;;;;;;5019918;28;20415;-83
2022/06/18 03:52:09;;;;;;;6.33;3.97;;;;;;;;;;5019648;28;20404;-84
2022/06/18 03:54:35;;;;;;;4.00;3.50;;;;;;;;;;5019559;28;20457;-83
2022/06/18 03:57:01;;;;;;;7.17;3.20;;;;;;;;;;5019929;28;20483;-83
2022/06/18 03:59:27;;;;;;;5.47;3.50;;;;;;;;;;5019468;28;20403;-83
2022/06/18 04:01:53;;;;;;;5.00;3.70;;;;;;;;;;5001207;28;20411;-82
2022/06/18 04:04:19;;;;;;;4.53;3.70;;;;;;;;;;4999061;28;20415;-83
2022/06/18 04:06:45;;;;;;;5.03;3.60;;;;;;;;;;5018617;28;20467;-82
2022/06/18 04:09:11;;;;;;;5.87;3.80;;;;;;;;;;5018688;28;20415;-82
2022/06/18 04:11:38;;;;;;;6.10;4.00;;;;;;;;;;5019395;28;20784;-83
2022/06/18 04:14:04;;;;;;;6.00;3.83;;;;;;;;;;5018594;28;20443;-82
2022/06/18 04:16:30;;;;;;;3.37;2.90;;;;;;;;;;5018432;28;20558;-83
2022/06/18 04:18:56;;;;;;;3.40;3.07;;;;;;;;;;5018411;28;20857;-83
2022/06/18 04:21:22;;;;;;;9.00;3.47;;;;;;;;;;5018744;28;20400;-83
2022/06/18 04:23:48;;;;;;;6.13;3.80;;;;;;;;;;5001190;28;20417;-83
2022/06/18 04:26:14;;;;;;;4.10;3.40;;;;;;;;;;5018846;28;20419;-82
2022/06/18 04:28:40;;;;;;;4.40;3.67;;;;;;;;;;5018589;28;20407;-82
2022/06/18 04:31:07;;;;;;;4.20;3.43;;;;;;;;;;5017623;28;20404;-83
2022/06/18 04:33:33;;;;;;;3.30;2.87;;;;;;;;;;5018197;28;20790;-83
2022/06/18 04:35:59;;;;;;;3.70;3.30;;;;;;;;;;5018265;28;20446;-83
2022/06/18 04:38:26;;;;;;;3.50;2.83;;;;;;;;;;5000450;28;20411;-83
2022/06/18 04:40:53;;;;;;;4.03;3.23;;;;;;;;;;5018381;28;20412;-83
2022/06/18 04:43:19;;;;;;;4.63;3.00;;;;;;;;;;5018317;28;20439;-83
2022/06/18 04:45:45;;;;;;;6.13;2.57;;;;;;;;;;5018428;28;20447;-83
2022/06/18 04:48:12;;;;;;;5.00;2.80;;;;;;;;;;5019416;28;20407;-83
2022/06/18 04:50:40;;;;;;;6.83;3.40;;;;;;;;;;5018554;28;20545;-83
2022/06/18 04:53:07;;;;;;;9.53;3.10;;;;;;;;;;5018558;28;20408;-83
2022/06/18 04:55:33;;;;;;;5.33;3.20;;;;;;;;;;5018209;28;20487;-83
2022/06/18 04:57:59;;;;;;;3.30;2.90;;;;;;;;;;5018119;28;20435;-83
2022/06/18 05:00:26;;;;;;;6.57;3.40;;;;;;;;;;5018755;28;20404;-83
2022/06/18 05:02:52;;;;;;;3.50;3.20;;;;;;;;;;5019035;28;20403;-83
2022/06/18 05:05:22;;;;;;;3.00;2.50;;;;;;;;;;5018261;28;20532;-83
2022/06/18 05:07:48;;;;;;;5.30;3.00;;;;;;;;;;5018707;28;20439;-83
2022/06/18 05:10:14;;;;;;;3.50;2.90;;;;;;;;;;5018733;28;20411;-82
2022/06/18 05:12:40;;;;;;;3.17;2.80;;;;;;;;;;5018498;28;20416;-83
2022/06/18 05:15:07;;;;;;;5.00;2.80;;;;;;;;;;5014630;28;20486;-82
2022/06/18 05:17:34;;;;;;;4.03;3.17;;;;;;;;;;5014048;28;20404;-82
2022/06/18 05:20:00;;;;;;;5.93;3.10;;;;;;;;;;5013848;28;20805;-83
2022/06/18 05:22:27;;;;;;;4.20;3.07;;;;;;;;;;5014456;28;20406;-82
2022/06/18 05:24:53;;;;;;;4.77;3.00;;;;;;;;;;5014407;28;20773;-82
2022/06/18 05:27:22;;;;;;;3.73;2.70;;;;;;;;;;5015817;28;20415;-83
2022/06/18 05:29:48;;;;;;;4.77;2.70;;;;;;;;;;5014304;28;20769;-82
2022/06/18 05:32:14;;;;;;;4.53;2.63;;;;;;;;;;5018659;28;20454;-83
2022/06/18 05:34:40;;;;;;;3.30;2.87;;;;;;;;;;5017657;28;20459;-83
2022/06/18 05:37:16;;;;;;;3.90;2.60;;;;;;;;;;5015219;28;20461;-83
2022/06/18 05:39:42;;;;;;;3.70;2.10;;;;;;;;;;5015602;28;20406;-83
2022/06/18 05:42:09;;;;;;;4.00;3.17;;;;;;;;;;5017713;28;20408;-83
2022/06/18 05:44:35;;;;;;;5.40;2.80;;;;;;;;;;5018909;28;20407;-83
2022/06/18 05:47:01;;;;;;;5.67;2.33;;;;;;;;;;5018162;28;20498;-83
2022/06/18 05:49:27;;;;;;;4.00;3.00;;;;;;;;;;5018140;28;20904;-83
2022/06/18 05:51:53;;;;;;;5.20;3.10;;;;;;;;;;5017274;28;20441;-84
2022/06/18 05:54:19;;;;;;;6.50;2.60;;;;;;;;;;5017779;28;20490;-84
2022/06/18 05:56:45;;;;;;;3.60;2.43;;;;;;;;;;5017667;28;20431;-83
2022/06/18 05:59:12;;;;;;;4.37;3.10;;;;;;;;;;5017616;28;20482;-83
2022/06/18 06:01:38;;;;;;;3.47;2.93;;;;;;;;;;5017183;28;20403;-83
2022/06/18 06:04:04;;;;;;;3.90;2.80;;;;;;;;;;5017614;28;20972;-83
2022/06/18 06:06:30;;;;;;;3.70;2.67;;;;;;;;;;5017217;28;20442;-84
2022/06/18 06:08:56;;;;;;;9.10;3.10;;;;;;;;;;4999767;28;20414;-83
2022/06/18 06:11:32;;;;;;;3.30;2.30;;;;;;;;;;5017298;28;20411;-83
2022/06/18 06:13:58;;;;;;;4.00;2.30;;;;;;;;;;5017583;28;20434;-83
2022/06/18 06:16:25;;;;;;;3.03;2.27;;;;;;;;;;5017777;28;20853;-84
2022/06/18 06:18:51;;;;;;;3.03;2.40;;;;;;;;;;5000142;28;20485;-83
2022/06/18 06:21:17;;;;;;;3.73;2.40;;;;;;;;;;5019527;28;20756;-84
2022/06/18 06:23:44;;;;;;;3.27;2.23;;;;;;;;;;5019343;28;20408;-84
2022/06/18 06:26:24;;;;;;;3.50;1.90;;;;;;;;;;5018940;28;20435;-83
2022/06/18 06:28:50;;;;;;;5.20;2.73;;;;;;;;;;5018602;28;20411;-84
2022/06/18 06:31:17;;;;;;;4.00;2.30;;;;;;;;;;5018755;28;20435;-84
2022/06/18 06:33:43;;;;;;;3.87;2.70;;;;;;;;;;5018328;28;20447;-84
2022/06/18 06:36:12;;;;;;;4.10;2.30;;;;;;;;;;4980577;28;1117348;-83
2022/06/18 06:38:39;;;;;;;3.30;2.73;;;;;;;;;;5019672;28;20407;-84
2022/06/18 06:41:13;;;;;;;4.70;2.53;;;;;;;;;;5020617;28;20404;-84
2022/06/18 06:43:39;;;;;;;8.50;2.00;;;;;;;;;;5019898;28;20407;-84
2022/06/18 06:46:05;;;;;;;3.10;2.20;;;;;;;;;;5020039;28;20497;-84
2022/06/18 06:48:31;;;;;;;3.10;2.57;;;;;;;;;;5020356;28;20418;-84
2022/06/18 06:50:58;;;;;;;5.50;2.40;;;;;;;;;;5019760;28;20403;-84
2022/06/18 06:53:24;;;;;;;4.37;3.13;;;;;;;;;;5021482;28;20418;-84
2022/06/18 06:58:34;;;;;;;4.80;2.77;;;;;;;;;;5021204;28;20398;-84
2022/06/18 07:01:01;;;;;;;3.17;2.17;;;;;;;;;;5021383;28;20461;-84
2022/06/18 07:03:29;;;;;;;3.70;2.10;;;;;;;;;;5021347;28;20442;-84
2022/06/18 07:05:56;;;;;;;3.57;2.10;;;;;;;;;;5021799;28;20510;-84
2022/06/18 07:08:22;;;;;;;7.60;2.33;;;;;;;;;;5020909;28;20434;-84
2022/06/18 07:10:50;;;;;;;2.70;2.50;;;;;;;;;;4987173;28;20431;-84
2022/06/18 07:13:16;;;;;;;4.90;2.13;;;;;;;;;;5001420;28;20427;-84
2022/06/18 07:15:43;;;;;;;2.70;2.07;;;;;;;;;;5001073;28;20443;-85
2022/06/18 07:18:14;;;;;;;4.70;2.30;;;;;;;;;;5001801;28;20440;-85
2022/06/18 07:20:40;;;;;;;2.80;1.90;;;;;;;;;;5004210;28;20417;-84
2022/06/18 07:23:07;;;;;;;3.53;2.20;;;;;;;;;;5005329;28;20431;-84
2022/06/18 07:25:33;;;;;;;4.23;2.40;;;;;;;;;;5005992;28;20436;-85
2022/06/18 07:27:59;;;;;;;3.90;2.13;;;;;;;;;;4988732;28;20404;-85
2022/06/18 07:30:26;;;;;;;3.50;2.30;;;;;;;;;;5004497;28;20412;-86
2022/06/18 07:32:52;;;;;;;4.73;2.00;;;;;;;;;;5001791;28;20423;-85
2022/06/18 07:35:20;;;;;;;3.63;2.40;;;;;;;;;;5003556;28;20880;-84
2022/06/18 07:37:47;;;;;;;3.60;2.40;;;;;;;;;;5003148;28;20474;-84
2022/06/18 07:40:13;;;;;;;3.90;2.40;;;;;;;;;;5001117;28;20403;-84
2022/06/18 07:42:40;;;;;;;5.70;2.23;;;;;;;;;;4982151;28;20416;-83
2022/06/18 07:45:13;;;;;;;6.73;2.40;;;;;;;;;;5000990;28;20424;-83
2022/06/18 07:47:39;;;;;;;3.57;2.10;;;;;;;;;;5001542;28;20399;-84
2022/06/18 07:50:06;;;;;;;3.60;2.17;;;;;;;;;;5001396;28;20412;-83
2022/06/18 07:52:32;;;;;;;5.10;2.77;;;;;;;;;;5002245;28;20495;-84
2022/06/18 07:54:58;;;;;;;7.13;2.60;;;;;;;;;;4999618;28;20494;-83
2022/06/18 07:57:24;;;;;;;3.97;2.50;;;;;;;;;;4982517;28;20400;-83
2022/06/18 07:59:50;;;;;;;3.70;2.10;;;;;;;;;;5000684;28;20404;-84
2022/06/18 08:02:18;;;;;;;3.47;2.20;;;;;;;;;;5000441;28;20396;-84
2022/06/18 08:04:44;;;;;;;3.70;2.00;;;;;;;;;;5000152;28;20404;-83
2022/06/18 08:07:10;;;;;;;4.73;2.30;;;;;;;;;;4999824;28;20404;-83
2022/06/18 08:09:38;;;;;;;3.37;2.03;;;;;;;;;;5001461;28;20416;-84
2022/06/18 08:12:04;;;;;;;4.50;2.10;;;;;;;;;;5002079;28;20496;-84
2022/06/18 08:14:30;;;;;;;6.53;2.27;;;;;;;;;;5001101;28;20447;-83
2022/06/18 08:16:56;;;;;;;3.20;1.97;;;;;;;;;;5001347;28;20491;-84
2022/06/18 08:19:22;;;;;;;3.73;2.10;;;;;;;;;;5001511;28;20435;-84
2022/06/18 08:21:48;;;;;;;3.13;1.70;;;;;;;;;;5001806;28;20917;-84
2022/06/18 08:24:17;;;;;;;6.90;1.77;;;;;;;;;;5001375;28;20471;-84
2022/06/18 08:26:43;;;;;;;4.87;2.10;;;;;;;;;;5000633;28;20428;-84
2022/06/18 08:29:12;;;;;;;2.27;1.93;;;;;;;;;;5001298;28;20404;-82
2022/06/18 08:31:38;;;;;;;3.27;1.67;;;;;;;;;;5001745;28;20408;-83
2022/06/18 08:34:04;;;;;;;1.90;1.50;;;;;;;;;;5001176;28;20448;-84
2022/06/18 08:36:30;;;;;;;6.13;2.60;;;;;;;;;;5001196;28;20997;-84
2022/06/18 08:38:56;;;;;;;2.47;1.73;;;;;;;;;;5001891;28;20479;-84
2022/06/18 08:41:22;;;;;;;3.20;1.63;;;;;;;;;;5002762;28;20400;-84
2022/06/18 08:44:04;;;;;;;2.97;2.20;;;;;;;;;;4983903;28;20439;-84
2022/06/18 08:46:48;;;;;;;2.40;1.30;;;;;;;;;;5001580;28;20940;-84
2022/06/18 08:49:33;;;;;;;2.27;1.23;;;;;;;;;;5002070;28;20902;-84
2022/06/18 08:52:26;;;;;;;7.23;1.63;;;;;;;;;;5002005;28;20439;-84
2022/06/18 08:55:07;;;;;;;2.30;1.30;;;;;;;;;;5001180;28;20502;-83
2022/06/18 08:57:33;;;;;;;9.80;1.77;;;;;;;;;;4979828;28;20404;-83
2022/06/18 09:00:02;;;;;;;2.20;1.40;;;;;;;;;;4997548;28;20419;-83
2022/06/18 09:02:28;;;;;;;2.20;1.53;;;;;;;;;;4995549;28;20416;-83
2022/06/18 09:05:13;;;;;;;2.47;1.80;;;;;;;;;;4996528;28;20459;-84
2022/06/18 09:07:46;;;;;;;2.90;1.40;;;;;;;;;;4997043;28;20443;-83
2022/06/18 09:10:31;;;;;;;4.20;2.13;;;;;;;;;;4995237;28;20484;-83
2022/06/18 09:13:02;;;;;;;3.27;1.73;;;;;;;;;;4996746;28;20843;-84
2022/06/18 09:15:31;;;;;;;1.90;1.60;;;;;;;;;;4996118;28;20460;-84
2022/06/18 09:18:06;;;;;;;3.23;1.90;;;;;;;;;;4995757;28;20436;-83
2022/06/18 09:20:50;;;;;;;4.27;1.93;;;;;;;;;;5004453;28;20458;-84
2022/06/18 09:23:37;;;;;;;4.70;2.13;;;;;;;;;;4999526;28;20439;-84
2022/06/18 09:26:05;;;;;;;2.80;1.77;;;;;;;;;;4999392;28;20483;-82
2022/06/18 09:28:39;;;;;;;2.63;1.80;;;;;;;;;;5000656;28;20812;-83
2022/06/18 09:31:15;;;;;;;2.20;1.73;;;;;;;;;;5000373;28;20454;-83
2022/06/18 09:33:53;;;;;;;2.73;1.70;;;;;;;;;;5000067;28;20446;-83
2022/06/18 09:36:21;;;;;;;2.87;2.00;;;;;;;;;;5008719;23;20552;-84
2022/06/18 09:39:08;;;;;;;2.23;1.50;;;;;;;;;;4980463;28;20401;-85
2022/06/18 09:41:38;;;;;;;2.77;2.27;;;;;;;;;;4998944;28;20403;-83
2022/06/18 09:44:09;;;;;;;2.77;1.70;;;;;;;;;;4976826;28;20821;-83
2022/06/18 09:46:40;;;;;;;2.57;2.03;;;;;;;;;;4976419;28;21015;-83
2022/06/18 09:49:07;;;;;;;3.10;1.73;;;;;;;;;;4957447;28;20452;-84
2022/06/18 09:51:40;;;;;;;3.00;1.63;;;;;;;;;;4958511;28;20412;-84
2022/06/18 09:54:07;;;;;;;3.07;1.87;;;;;;;;;;4975911;28;20441;-84
2022/06/18 09:56:45;;;;;;;2.97;1.60;;;;;;;;;;4976604;28;20464;-85
2022/06/18 09:59:16;;;;;;;2.00;1.57;;;;;;;;;;4978261;28;20827;-83
2022/06/18 10:01:45;;;;;;;2.27;1.60;;;;;;;;;;4977606;28;20401;-85
2022/06/18 10:06:58;;;;;;;2.03;1.30;;;;;;;;;;4978938;28;20420;-85
2022/06/18 10:09:44;;;;;;;3.77;2.00;;;;;;;;;;4978946;28;20436;-86
2022/06/18 10:12:23;;;;;;;5.10;1.73;;;;;;;;;;4978962;28;20416;-85
2022/06/18 10:14:52;;;;;;;2.63;1.70;;;;;;;;;;4984821;28;20456;-85
2022/06/18 10:17:36;;;;;;;2.27;1.60;;;;;;;;;;4982216;28;20759;-86
2022/06/18 10:20:07;;;;;;;2.00;1.60;;;;;;;;;;4979866;28;20408;-86
2022/06/18 10:22:38;;;;;;;2.23;1.50;;;;;;;;;;4978422;28;20452;-86
2022/06/18 10:25:14;;;;;;;2.40;1.50;;;;;;;;;;4979795;28;20407;-86
2022/06/18 10:27:47;;;;;;;4.33;2.10;;;;;;;;;;4979773;28;20463;-85
2022/06/18 10:30:35;;;;;;;3.30;1.77;;;;;;;;;;4982178;28;20397;-86
2022/06/18 10:33:07;;;;;;;3.30;1.60;;;;;;;;;;4983009;28;20901;-85
2022/06/18 10:35:53;;;;;;;3.10;2.07;;;;;;;;;;4984559;28;20869;-84
2022/06/18 10:38:29;;;;;;;5.00;1.73;;;;;;;;;;4993298;28;20421;-83
2022/06/18 10:41:01;;;;;;;2.23;1.70;;;;;;;;;;4993293;28;20405;-83
2022/06/18 10:43:46;;;;;;;3.30;1.83;;;;;;;;;;4992409;28;20774;-83
2022/06/18 10:46:14;;;;;;;2.20;1.80;;;;;;;;;;4993311;28;20492;-83
2022/06/18 10:48:44;;;;;;;8.50;1.40;;;;;;;;;;4993866;28;20420;-83
2022/06/18 10:51:16;;;;;;;3.20;1.70;;;;;;;;;;4989869;28;20386;-86
2022/06/18 10:53:47;;;;;;;4.17;1.53;;;;;;;;;;4991956;28;20449;-83
2022/06/18 10:56:15;;;;;;;4.13;1.50;;;;;;;;;;4975837;28;20422;-83
2022/06/18 10:58:48;;;;;;;4.10;1.80;;;;;;;;;;4989632;28;20403;-83
2022/06/18 11:01:15;;;;;;;9.83;3.10;;;;;;;;;;4975944;28;20417;-82
2022/06/18 11:03:52;;;;;;;3.30;1.90;;;;;;;;;;4984564;28;20401;-86
2022/06/18 11:06:18;;;;;;;2.07;1.57;;;;;;;;;;4980910;28;20933;-86
2022/06/18 11:08:58;;;;;;;2.20;1.70;;;;;;;;;;4980801;28;20423;-86
2022/06/18 11:11:28;;;;;;;5.03;2.00;;;;;;;;;;4963564;28;20409;-86
2022/06/18 11:13:55;;;;;;;3.03;1.60;;;;;;;;;;4963314;28;20464;-86
2022/06/18 11:16:21;;;;;;;3.63;1.57;;;;;;;;;;4981231;28;20425;-84
2022/06/18 11:19:10;;;;;;;3.40;1.70;;;;;;;;;;4981320;28;20401;-84
2022/06/18 11:21:40;;;;;;;2.13;1.43;;;;;;;;;;4981082;28;20424;-84
2022/06/18 11:24:17;;;;;;;4.23;1.87;;;;;;;;;;4964212;28;20770;-85
2022/06/18 11:26:51;;;;;;;2.67;1.70;;;;;;;;;;4981127;28;20428;-84
2022/06/18 11:29:26;;;;;;;3.40;1.40;;;;;;;;;;4981831;28;20392;-84
2022/06/18 11:31:54;;;;;;;4.03;1.40;;;;;;;;;;4981929;28;20512;-84
2022/06/18 11:34:25;;;;;;;2.90;1.90;;;;;;;;;;4981304;28;20449;-84
2022/06/18 11:36:53;;;;;;;3.67;1.60;;;;;;;;;;4980898;28;20437;-83
2022/06/18 11:39:36;;;;;;;2.93;1.60;;;;;;;;;;4980883;28;20405;-84
2022/06/18 11:42:23;;;;;;;2.70;1.77;;;;;;;;;;4980184;28;20405;-84
2022/06/18 11:44:53;;;;;;;5.47;1.70;;;;;;;;;;4983810;28;20857;-85
2022/06/18 11:47:22;;;;;;;3.20;1.73;;;;;;;;;;4982545;28;20413;-85
2022/06/18 11:50:12;;;;;;;4.90;2.20;;;;;;;;;;4981078;28;20416;-85
2022/06/18 11:52:42;;;;;;;3.47;1.53;;;;;;;;;;4980903;28;20402;-85
2022/06/18 11:55:11;;;;;;;6.00;2.67;;;;;;;;;;4981138;28;20457;-85
2022/06/18 11:57:50;;;;;;;11.80;2.30;;;;;;;;;;4980831;28;20405;-85
2022/06/18 12:00:20;;;;;;;4.40;1.73;;;;;;;;;;4980563;28;20396;-84
2022/06/18 12:02:49;;;;;;;2.63;1.63;;;;;;;;;;4980016;28;20494;-83
2022/06/18 12:05:21;;;;;;;4.00;1.80;;;;;;;;;;4979383;28;20429;-83
2022/06/18 12:07:50;;;;;;;5.30;2.63;;;;;;;;;;4980302;28;20785;-85
2022/06/18 12:10:17;;;;;;;8.20;2.40;;;;;;;;;;4979514;28;20421;-85
2022/06/18 12:13:02;;;;;;;6.90;1.93;;;;;;;;;;4981420;28;20471;-83
2022/06/18 12:15:47;;;;;;;8.07;2.07;;;;;;;;;;4982653;28;20556;-85
2022/06/18 12:18:25;;;;;;;3.20;1.70;;;;;;;;;;4979979;28;20826;-85
2022/06/18 12:20:54;;;;;;;3.40;1.70;;;;;;;;;;4980608;28;20393;-84
2022/06/18 12:23:29;;;;;;;8.67;2.07;;;;;;;;;;4979591;28;20433;-86
2022/06/18 12:26:12;;;;;;;3.83;2.00;;;;;;;;;;4979207;28;20420;-85
2022/06/18 12:28:50;;;;;;;3.40;1.90;;;;;;;;;;4961946;28;20397;-86
2022/06/18 12:31:21;;;;;;;4.77;2.13;;;;;;;;;;4979752;28;20409;-85
2022/06/18 12:33:59;;;;;;;4.97;1.90;;;;;;;;;;4995498;28;20465;-84
2022/06/18 12:36:28;;;;;;;7.30;2.60;;;;;;;;;;4975986;28;20512;-84
2022/06/18 12:39:00;;;;;;;6.00;2.13;;;;;;;;;;4976606;28;20416;-83
2022/06/18 12:41:39;;;;;;;3.87;1.93;;;;;;;;;;4958592;28;20401;-83
2022/06/18 12:44:17;;;;;;;7.27;2.20;;;;;;;;;;4975887;28;20827;-83
2022/06/18 12:47:04;;;;;;;7.10;2.40;;;;;;;;;;4976343;28;20424;-83
2022/06/18 12:49:35;;;;;;;11.87;2.50;;;;;;;;;;4977192;28;20408;-85
2022/06/18 12:52:07;;;;;;;8.50;2.63;;;;;;;;;;4976828;28;20393;-84
2022/06/18 12:54:39;;;;;;;21.13;3.77;;;;;;;;;;4978607;28;20456;-85
2022/06/18 12:57:21;;;;;;;8.47;2.57;;;;;;;;;;4977801;28;20421;-84
2022/06/18 12:59:50;;;;;;;5.50;2.53;;;;;;;;;;4978628;28;20386;-85
2022/06/18 13:02:42;;;;;;;10.33;2.67;;;;;;;;;;4978195;28;20751;-85
2022/06/18 13:05:10;;;;;;;12.63;2.57;;;;;;;;;;4978923;28;20421;-83
2022/06/18 13:07:49;;;;;;;8.83;2.37;;;;;;;;;;4978293;28;20409;-83
2022/06/18 13:10:26;;;;;;;9.90;2.30;;;;;;;;;;4978332;28;20420;-84
2022/06/18 13:13:10;;;;;;;4.77;2.57;;;;;;;;;;4977865;28;20471;-84
2022/06/18 13:15:41;;;;;;;5.83;2.37;;;;;;;;;;4979038;28;20495;-85
2022/06/18 13:18:06;;;;;;;12.67;2.93;;;;;;;;;;4980002;28;20393;-85
2022/06/18 13:20:34;;;;;;;9.00;2.53;;;;;;;;;;4984506;28;20496;-85
2022/06/18 13:28:10;;;;;;;6.13;2.70;;;;;;;;;;4984628;28;20430;-84
2022/06/18 13:28:32;;;;;;;9.00;3.13;;;;;;;;;;4979552;28;20530;-85
2022/06/18 13:31:04;;;;;;;6.00;2.60;;;;;;;;;;4978641;28;20405;-85
2022/06/18 13:33:40;;;;;;;9.30;2.07;;;;;;;;;;4981294;28;20461;-85
2022/06/18 13:36:12;;;;;;;4.90;2.70;;;;;;;;;;4981615;28;20448;-85
2022/06/18 13:38:57;;;;;;;7.43;2.63;;;;;;;;;;4982820;28;20420;-85
2022/06/18 13:41:38;;;;;;;16.23;3.60;;;;;;;;;;4981331;28;20772;-86
2022/06/18 13:44:13;;;;;;;7.23;2.40;;;;;;;;;;4981099;28;20405;-85
2022/06/18 13:46:47;;;;;;;7.27;2.50;;;;;;;;;;4980553;28;20424;-85
2022/06/18 13:49:29;;;;;;;6.43;3.50;;;;;;;;;;4981216;28;20396;-84
2022/06/18 13:51:57;;;;;;;6.80;2.60;;;;;;;;;;4988334;28;20409;-82
2022/06/18 13:54:23;;;;;;;4.90;2.50;;;;;;;;;;4986180;28;20460;-84
2022/06/18 13:56:57;;;;;;;7.83;2.67;;;;;;;;;;4984988;28;20779;-85
2022/06/18 13:59:24;;;;;;;7.07;2.33;;;;;;;;;;4986867;28;20431;-84
2022/06/18 14:01:52;;;;;;;8.00;2.40;;;;;;;;;;4985530;28;20906;-85
2022/06/18 14:04:24;;;;;;;4.90;2.37;;;;;;;;;;4986522;28;20870;-85
2022/06/18 14:06:51;;;;;;;7.43;2.43;;;;;;;;;;4988611;28;20425;-85
2022/06/18 14:09:20;;;;;;;11.83;2.43;;;;;;;;;;4989264;28;20409;-87
2022/06/18 14:11:50;;;;;;;10.70;2.80;;;;;;;;;;4988257;28;20411;-86
2022/06/18 14:14:45;;;;;;;8.30;2.70;;;;;;;;;;4988295;28;20453;-84
2022/06/18 14:17:13;;;;;;;6.23;2.80;;;;;;;;;;4981054;28;20437;-85
2022/06/18 14:19:43;;;;;;;6.87;2.60;;;;;;;;;;4971783;28;20414;-85
2022/06/18 14:22:09;;;;;;;4.97;2.40;;;;;;;;;;4986015;28;20941;-85
2022/06/18 14:25:05;;;;;;;9.77;2.67;;;;;;;;;;4984236;28;20757;-87
2022/06/18 14:27:32;;;;;;;6.10;2.60;;;;;;;;;;4975258;28;20425;-85
2022/06/18 14:30:00;;;;;;;6.30;2.40;;;;;;;;;;4983670;28;20409;-85
2022/06/18 14:32:44;;;;;;;10.83;2.80;;;;;;;;;;4983745;28;21004;-84
2022/06/18 14:35:13;;;;;;;8.43;2.90;;;;;;;;;;4990580;28;20445;-83
2022/06/18 14:37:42;;;;;;;12.17;3.40;;;;;;;;;;4984577;28;20393;-84
2022/06/18 14:40:10;;;;;;;5.70;2.40;;;;;;;;;;4983334;28;20470;-87
2022/06/18 14:42:51;;;;;;;11.23;3.00;;;;;;;;;;4982937;28;20898;-85
2022/06/18 14:45:20;;;;;;;6.70;2.77;;;;;;;;;;4983996;28;20465;-85
2022/06/18 14:47:53;;;;;;;12.87;3.30;;;;;;;;;;4984909;28;20397;-84
2022/06/18 14:50:31;;;;;;;5.70;2.20;;;;;;;;;;4983278;28;20394;-85
2022/06/18 14:53:03;;;;;;;5.33;2.27;;;;;;;;;;4983335;28;20409;-85
2022/06/18 14:55:41;;;;;;;13.80;3.60;;;;;;;;;;4982561;28;20517;-84
2022/06/18 14:58:13;;;;;;;7.73;2.93;;;;;;;;;;4984191;28;20393;-85
2022/06/18 15:00:45;;;;;;;13.67;3.23;;;;;;;;;;4982978;28;20412;-87
2022/06/18 15:03:19;;;;;;;6.53;2.40;;;;;;;;;;4983050;28;20830;-85
2022/06/18 15:05:53;;;;;;;9.97;2.77;;;;;;;;;;4967458;28;20492;-87
2022/06/18 15:08:19;;;;;;;11.03;3.30;;;;;;;;;;4983343;28;20393;-86
2022/06/18 15:10:53;;;;;;;13.30;2.87;;;;;;;;;;4983124;28;20412;-85
2022/06/18 15:13:19;;;;;;;8.73;2.70;;;;;;;;;;4983261;28;20444;-85
2022/06/18 15:21:10;;;;;;;5.73;2.27;;;;;;;;;;4982413;28;20885;-85